Wilsall, MT (59086)

9:58 AM MDT on September 16, 2014 (GMT -0600)
Wilsall | Change Station
CLOSE
Current Station
Personal Weather Station
Location: Wilsall, MT
Elevation: 5177 ft
Nearby Weather Stations

Elev 5177 ft 45.99 °N, 110.66 °W | Updated 48 minutes ago

Partly Cloudy
Partly Cloudy
48.0 °F
Feels Like 47 °F
N
4.0
Wind Variable Wind from NW
Gusts 5.0 mph

Today
High -- | Low -- °F
--% Chance of Precip.
Yesterday
High -- | Low -- °F
Precip. -- in
7:02 AM 7:32 PM
Last Quarter, 44% visible
Pressure 30.05 in
Visibility 10.0 miles
Clouds Clear
Windchill 47 °F
Dew Point 24 °F
Humidity 38%
Rainfall 0.00 in
Snow Depth 0 in , 0 in , 0 in
UV 1 out of 12
Pollen 5.90 out of 12
Air Quality Not available.
Flu Activity Not available.
METAR KLVM 161453Z AUTO 33005KT 10SM CLR 11/03 A3010 RMK AO2 SLP174 T01060028 50000

More Conditions Fewer Conditions

Pressure 30.05 in
Visibility 10.0 miles
Clouds Clear
Windchill 47 °F
Dew Point 24 °F
Humidity 38%
Rainfall 0.00 in
Snow Depth 0 in , 0 in , 0 in
UV 1 out of 12
Pollen 5.90 out of 12
Air Quality Not available.
Flu Activity Not available.
METAR KLVM 161453Z AUTO 33005KT 10SM CLR 11/03 A3010 RMK AO2 SLP174 T01060028 50000

More Conditions Fewer Conditions

10-Day Weather Forecast

Almanac

Astronomy

Sep. 16, 2014 Rise Set
Actual Time 7:02 AM MDT 7:32 PM MDT
Civil Twilight 6:32 AM MDT 8:01 PM MDT
Nautical Twilight 5:56 AM MDT 8:37 PM MDT
Astronomical Twilight 5:19 AM MDT 9:14 PM MDT
Moon 12:00 AM MDT 3:12 PM MDT
Length of Visible Light 13h 29m
Length of Day
12h 29m
Tomorrow will be 3m 13s shorter.
Last Quarter, 44% of the Moon is Illuminated
Today
Last Quarter
Sep 24
New
Oct 1
First Quarter
Oct 8
Full
Oct 15
Last Quarter

Today's Extremes

State Highs State Lows

Community

WunderPhotos

Upload Photos

1,753,813 photos uploaded!

Nearby

Snow Depth

Station Depth Elevation
Hoodoo Basin 0 in 6050 ft
Pickfoot Creek 0 in 6650 ft
Stuart Mountain 0 in 7400 ft
Tizer Basin 1 in 6840 ft
Box Canyon 0 in 6700 ft

Earthquake Activity

City Distance Mag. Time & Date
No recent earthquake activity has been reported nearby.
Minimum magnitude displayed is 2.5.

Coastal Water Temperatures

Place Temperature
No Stations Reporting

Nearby Weather Stations